createdAt,value
2022-12-31T00:00:23.047Z,110.97
2022-12-31T00:02:56.560Z,102.72
2022-12-31T00:05:26.624Z,116.10
2022-12-31T00:07:56.721Z,107.85
2022-12-31T00:10:27.199Z,107.70
2022-12-31T00:12:57.281Z,103.68
2022-12-31T00:15:28.420Z,117.75
2022-12-31T00:18:01.670Z,113.70
2022-12-31T00:20:31.923Z,112.40
2022-12-31T00:23:02.354Z,107.38
2022-12-31T00:25:32.552Z,103.93
2022-12-31T00:28:02.550Z,123.55
2022-12-31T00:30:32.838Z,102.13
2022-12-31T00:33:05.603Z,111.65
2022-12-31T00:35:36.592Z,100.90
2022-12-31T00:38:06.935Z,101.85
2022-12-31T00:40:37.216Z,94.72
2022-12-31T00:43:07.409Z,104.15
2022-12-31T00:45:38.452Z,101.50
2022-12-31T00:48:11.642Z,92.65
2022-12-31T00:50:41.815Z,101.22
2022-12-31T00:53:12.130Z,92.00
2022-12-31T00:55:42.484Z,92.68
2022-12-31T00:58:12.918Z,96.45
2022-12-31T01:00:43.956Z,92.43
2022-12-31T01:03:16.892Z,98.82
2022-12-31T01:05:47.173Z,99.87
2022-12-31T01:08:17.457Z,96.85
2022-12-31T01:11:04.246Z,92.60
2022-12-31T01:13:34.646Z,95.65
2022-12-31T01:16:10.649Z,93.90
2022-12-31T01:18:44.053Z,93.63
2022-12-31T01:21:15.858Z,93.72
2022-12-31T01:23:46.061Z,92.97
2022-12-31T01:26:19.053Z,98.13
2022-12-31T01:28:50.098Z,94.13
2022-12-31T01:31:22.856Z,96.30
2022-12-31T01:33:56.761Z,98.37
2022-12-31T01:36:28.945Z,98.38
2022-12-31T01:39:00.601Z,99.47
2022-12-31T01:41:33.298Z,102.82
2022-12-31T01:44:05.415Z,103.82
2022-12-31T01:46:40.272Z,101.75
2022-12-31T01:49:19.674Z,99.50
2022-12-31T01:51:59.878Z,100.38
2022-12-31T01:54:32.620Z,103.35
2022-12-31T01:57:03.886Z,101.95
2022-12-31T01:59:36.077Z,102.10
2022-12-31T02:02:07.952Z,99.55
2022-12-31T02:04:40.828Z,99.65
2022-12-31T02:07:12.264Z,102.57
2022-12-31T02:09:44.924Z,104.10
2022-12-31T02:12:15.416Z,100.70
2022-12-31T02:14:48.709Z,104.32
2022-12-31T02:17:28.824Z,103.13
2022-12-31T02:20:19.481Z,100.70
2022-12-31T02:23:13.472Z,104.30
2022-12-31T02:26:05.805Z,102.68
2022-12-31T02:28:59.079Z,100.45
2022-12-31T02:31:37.950Z,103.57
2022-12-31T02:34:12.693Z,105.43
2022-12-31T02:36:48.138Z,106.22
2022-12-31T02:39:18.934Z,108.15
2022-12-31T02:41:54.059Z,107.22
2022-12-31T02:44:26.532Z,112.78
2022-12-31T02:47:20.967Z,111.32
2022-12-31T02:52:36.502Z,118.20
2022-12-31T02:55:14.161Z,100.03
2022-12-31T02:57:50.825Z,126.30
2022-12-31T03:00:34.057Z,100.47
2022-12-31T03:03:09.564Z,98.50
2022-12-31T03:05:43.783Z,112.35
2022-12-31T03:08:14.305Z,102.22
2022-12-31T03:10:44.555Z,104.57
2022-12-31T03:13:11.956Z,118.10
2022-12-31T03:15:43.177Z,114.47
2022-12-31T03:18:18.583Z,125.28
2022-12-31T03:21:12.059Z,125.65
2022-12-31T03:23:50.332Z,124.60
2022-12-31T03:26:17.802Z,131.27
2022-12-31T03:28:48.182Z,109.55
2022-12-31T03:31:19.026Z,114.03
2022-12-31T03:33:52.223Z,138.35
2022-12-31T03:36:22.557Z,117.78
2022-12-31T03:38:53.048Z,122.95
2022-12-31T03:41:23.762Z,119.45
2022-12-31T03:43:54.039Z,107.78
2022-12-31T03:46:24.377Z,106.85
2022-12-31T03:48:57.261Z,104.63
2022-12-31T03:51:27.475Z,127.50
2022-12-31T03:53:57.662Z,115.00
2022-12-31T03:56:27.832Z,142.90
2022-12-31T03:58:58.080Z,112.10
2022-12-31T04:01:28.242Z,100.68
2022-12-31T04:04:01.300Z,126.88
2022-12-31T04:06:31.471Z,101.70
2022-12-31T04:09:01.741Z,123.00
2022-12-31T04:11:31.799Z,94.93
2022-12-31T04:14:02.104Z,94.05
2022-12-31T04:16:32.425Z,95.50
2022-12-31T04:19:05.659Z,100.38
2022-12-31T04:21:35.861Z,127.87
2022-12-31T04:24:06.766Z,137.52
2022-12-31T04:26:37.774Z,100.65
2022-12-31T04:29:08.626Z,113.97
2022-12-31T04:31:38.920Z,109.50
2022-12-31T04:34:12.167Z,107.15
2022-12-31T04:36:42.638Z,113.10
2022-12-31T04:39:13.009Z,101.68
2022-12-31T04:41:43.136Z,142.15
2022-12-31T04:44:13.503Z,102.20
2022-12-31T04:46:43.755Z,97.25
2022-12-31T04:49:16.440Z,90.95
2022-12-31T04:51:46.728Z,88.40
2022-12-31T04:54:17.278Z,99.68
2022-12-31T04:56:47.844Z,94.55
2022-12-31T04:59:18.309Z,94.90
2022-12-31T05:01:49.115Z,96.40
2022-12-31T05:04:22.480Z,89.43
2022-12-31T05:06:52.526Z,81.90
2022-12-31T05:09:24.246Z,79.30
2022-12-31T05:11:54.457Z,77.78
2022-12-31T05:14:24.805Z,78.38
2022-12-31T05:16:55.453Z,75.60
2022-12-31T05:19:28.638Z,77.28
2022-12-31T05:22:11.038Z,82.57
2022-12-31T05:24:41.347Z,81.30
2022-12-31T05:27:11.498Z,82.93
2022-12-31T05:29:41.861Z,96.85
2022-12-31T05:32:11.935Z,94.07
2022-12-31T05:34:44.787Z,86.15
2022-12-31T05:37:15.380Z,84.70
2022-12-31T05:39:45.592Z,73.80
2022-12-31T05:42:15.697Z,71.95
2022-12-31T05:44:46.148Z,73.18
2022-12-31T05:47:16.930Z,94.03
2022-12-31T05:49:49.609Z,72.93
2022-12-31T05:52:20.043Z,79.63
2022-12-31T05:54:50.308Z,77.82
2022-12-31T05:57:20.634Z,69.88
2022-12-31T05:59:53.598Z,78.20
2022-12-31T06:02:24.731Z,72.53
2022-12-31T06:04:57.457Z,73.05
2022-12-31T06:07:27.772Z,72.40
2022-12-31T06:09:57.981Z,74.75
2022-12-31T06:12:28.330Z,75.55
2022-12-31T06:14:58.557Z,72.65
2022-12-31T06:17:29.442Z,79.80
2022-12-31T06:20:07.349Z,71.85
2022-12-31T06:22:40.665Z,73.20
2022-12-31T06:25:11.856Z,68.25
2022-12-31T06:27:42.257Z,67.72
2022-12-31T06:30:14.617Z,76.93
2022-12-31T06:32:44.976Z,90.10
2022-12-31T06:35:18.050Z,88.32
2022-12-31T06:37:48.339Z,79.53
2022-12-31T06:40:18.597Z,84.32
2022-12-31T06:42:49.870Z,88.60
2022-12-31T06:45:23.110Z,75.40
2022-12-31T06:47:53.567Z,85.72
2022-12-31T06:50:28.230Z,86.20
2022-12-31T06:52:58.298Z,86.55
2022-12-31T06:55:29.773Z,89.43
2022-12-31T06:58:00.938Z,90.90
2022-12-31T07:00:32.604Z,87.35
2022-12-31T07:03:26.555Z,81.68
2022-12-31T07:06:05.209Z,83.38
2022-12-31T07:08:46.743Z,75.05
2022-12-31T07:11:23.775Z,73.85
2022-12-31T07:14:11.802Z,88.00
2022-12-31T07:16:57.678Z,77.88
2022-12-31T07:19:39.009Z,79.10
2022-12-31T07:22:16.836Z,73.57
2022-12-31T07:24:48.591Z,67.43
2022-12-31T07:27:35.745Z,74.60
2022-12-31T07:30:10.155Z,82.90
2022-12-31T07:33:14.648Z,68.70
2022-12-31T07:35:53.044Z,78.53
2022-12-31T07:38:34.628Z,67.53
2022-12-31T07:41:13.186Z,73.45
2022-12-31T07:43:52.154Z,100.90
2022-12-31T07:46:34.489Z,90.40
2022-12-31T07:49:07.983Z,91.03
2022-12-31T07:51:38.750Z,88.63
2022-12-31T07:54:14.189Z,86.53
2022-12-31T07:56:46.340Z,82.05
2022-12-31T07:59:30.797Z,76.43
2022-12-31T08:02:08.784Z,81.97
2022-12-31T08:04:46.395Z,79.32
2022-12-31T08:07:24.566Z,101.28
2022-12-31T08:10:13.995Z,95.00
2022-12-31T08:12:50.131Z,96.90
2022-12-31T08:15:30.065Z,115.22
2022-12-31T08:18:01.416Z,106.35
2022-12-31T08:20:34.847Z,93.68
2022-12-31T08:23:24.028Z,105.10
2022-12-31T08:26:10.701Z,107.13
2022-12-31T08:28:56.242Z,101.43
2022-12-31T08:31:33.528Z,107.97
2022-12-31T08:34:14.979Z,106.30
2022-12-31T08:36:51.853Z,110.32
2022-12-31T08:39:35.118Z,108.22
2022-12-31T08:42:16.687Z,120.87
2022-12-31T08:44:56.158Z,105.05
2022-12-31T08:47:38.443Z,105.28
2022-12-31T08:50:15.947Z,109.05
2022-12-31T08:52:46.708Z,109.88
2022-12-31T08:55:19.863Z,119.25
2022-12-31T08:58:01.638Z,117.50
2022-12-31T09:00:34.430Z,107.05
2022-12-31T09:03:23.115Z,107.70
2022-12-31T09:06:02.664Z,106.57
2022-12-31T09:08:41.473Z,106.72
2022-12-31T09:11:22.832Z,105.00
2022-12-31T09:14:32.307Z,113.68
2022-12-31T09:17:14.332Z,109.53
2022-12-31T09:19:44.857Z,111.38
2022-12-31T09:22:15.495Z,116.28
2022-12-31T09:24:46.453Z,122.03
2022-12-31T09:27:27.270Z,121.00
2022-12-31T09:30:04.759Z,123.10
2022-12-31T09:32:55.353Z,114.78
2022-12-31T09:35:40.538Z,92.20
2022-12-31T09:38:21.665Z,75.53
2022-12-31T09:41:03.339Z,70.88
2022-12-31T09:44:04.616Z,66.85
2022-12-31T09:47:10.106Z,62.70
2022-12-31T09:50:16.431Z,55.40
2022-12-31T09:53:00.885Z,53.83
2022-12-31T09:55:39.908Z,51.85
2022-12-31T09:58:26.166Z,45.72
2022-12-31T10:01:05.538Z,48.80
2022-12-31T10:03:55.324Z,41.97
2022-12-31T10:06:32.439Z,39.53
2022-12-31T10:09:16.879Z,39.28
2022-12-31T10:12:05.520Z,38.55
2022-12-31T10:14:55.713Z,39.28
2022-12-31T10:17:41.402Z,38.13
2022-12-31T10:20:41.568Z,39.95
2022-12-31T10:23:39.122Z,36.22
2022-12-31T10:26:30.820Z,38.92
2022-12-31T10:29:12.407Z,37.75
2022-12-31T10:31:49.221Z,37.75
2022-12-31T10:34:25.278Z,36.10
2022-12-31T10:36:58.770Z,37.88
2022-12-31T10:39:45.558Z,36.80
2022-12-31T10:42:53.516Z,35.72
2022-12-31T10:45:49.815Z,33.67
2022-12-31T10:48:54.070Z,33.90
2022-12-31T10:51:47.937Z,32.50
2022-12-31T10:54:48.153Z,33.72
2022-12-31T10:58:03.976Z,33.88
2022-12-31T11:00:42.063Z,33.80
2022-12-31T11:03:49.375Z,33.22
2022-12-31T11:06:54.828Z,32.78
2022-12-31T11:10:08.017Z,35.30
2022-12-31T11:13:19.601Z,34.85
2022-12-31T11:16:22.878Z,32.35
2022-12-31T11:19:02.333Z,39.47
2022-12-31T11:21:50.881Z,35.92
2022-12-31T11:24:34.181Z,35.17
2022-12-31T11:27:17.319Z,34.40
2022-12-31T11:30:04.761Z,33.30
2022-12-31T11:32:51.538Z,30.73
2022-12-31T11:35:31.152Z,32.47
2022-12-31T11:38:13.031Z,34.85
2022-12-31T11:40:48.341Z,34.17
2022-12-31T11:43:30.071Z,34.22
2022-12-31T11:46:15.766Z,36.45
2022-12-31T11:49:00.133Z,36.22
2022-12-31T11:51:54.702Z,33.20
2022-12-31T11:54:50.390Z,31.98
2022-12-31T11:57:29.000Z,30.40
2022-12-31T12:00:02.486Z,29.02
2022-12-31T12:02:47.593Z,28.33
2022-12-31T12:05:23.015Z,28.15
2022-12-31T12:07:54.314Z,27.60
2022-12-31T12:10:36.087Z,24.88
2022-12-31T12:13:15.619Z,28.23
2022-12-31T12:15:50.011Z,29.08
2022-12-31T12:18:32.980Z,29.27
2022-12-31T12:21:14.519Z,29.70
2022-12-31T12:23:45.295Z,29.83
2022-12-31T12:26:31.556Z,27.92
2022-12-31T12:29:04.105Z,26.60
2022-12-31T12:31:34.399Z,28.60
2022-12-31T12:34:04.822Z,27.13
2022-12-31T12:36:37.533Z,26.25
2022-12-31T12:39:09.467Z,24.48
2022-12-31T12:41:39.535Z,25.88
2022-12-31T12:44:18.643Z,27.67
2022-12-31T12:46:51.778Z,26.25
2022-12-31T12:49:26.506Z,26.08
2022-12-31T12:52:14.664Z,25.98
2022-12-31T12:55:01.101Z,25.70
2022-12-31T12:57:37.169Z,27.70
2022-12-31T13:00:16.635Z,26.90
2022-12-31T13:03:08.881Z,25.73
2022-12-31T13:05:50.213Z,23.70
2022-12-31T13:08:40.006Z,24.45
2022-12-31T13:11:26.341Z,23.40
2022-12-31T13:14:03.424Z,24.33
2022-12-31T13:16:42.883Z,21.20
2022-12-31T13:19:21.056Z,22.55
2022-12-31T13:21:57.604Z,23.50
2022-12-31T13:24:46.327Z,24.23
2022-12-31T13:27:24.208Z,24.80
2022-12-31T13:29:58.425Z,25.45
2022-12-31T13:32:38.379Z,25.67
2022-12-31T13:35:22.773Z,29.15
2022-12-31T13:38:00.266Z,26.90
2022-12-31T13:40:50.814Z,25.17
2022-12-31T13:43:30.421Z,22.85
2022-12-31T13:46:12.994Z,20.40
2022-12-31T13:48:51.708Z,18.00
2022-12-31T13:51:29.098Z,17.67
2022-12-31T13:54:05.099Z,19.55
2022-12-31T13:56:40.956Z,20.05
2022-12-31T13:59:19.650Z,19.80
2022-12-31T14:01:55.395Z,20.15
2022-12-31T14:04:33.354Z,20.27
2022-12-31T14:07:09.654Z,21.20
2022-12-31T14:09:40.136Z,22.15
2022-12-31T14:12:25.455Z,22.08
2022-12-31T14:15:05.659Z,23.10
2022-12-31T14:17:45.245Z,23.23
2022-12-31T14:20:26.836Z,22.67
2022-12-31T14:23:06.131Z,20.45
2022-12-31T14:25:40.889Z,19.25
2022-12-31T14:28:20.979Z,16.40
2022-12-31T14:30:56.268Z,16.45
2022-12-31T14:33:39.303Z,16.08
2022-12-31T14:36:38.915Z,14.88
2022-12-31T14:39:22.894Z,14.57
2022-12-31T14:44:48.875Z,11.13
2022-12-31T14:47:33.736Z,9.68
2022-12-31T14:50:10.005Z,9.57
2022-12-31T14:52:53.197Z,8.25
2022-12-31T14:55:28.447Z,8.47
2022-12-31T14:58:27.231Z,8.70
2022-12-31T15:00:59.890Z,8.60
2022-12-31T15:03:43.178Z,8.15
2022-12-31T15:06:38.397Z,9.15
2022-12-31T15:09:20.802Z,9.50
2022-12-31T15:12:05.944Z,9.05
2022-12-31T15:15:11.604Z,8.82
2022-12-31T15:17:56.968Z,8.18
2022-12-31T15:20:50.839Z,10.30
2022-12-31T15:23:25.663Z,10.20
2022-12-31T15:26:01.354Z,9.65
2022-12-31T15:28:38.355Z,8.93
2022-12-31T15:31:19.889Z,9.43
2022-12-31T15:34:02.576Z,9.70
2022-12-31T15:36:35.779Z,9.18
2022-12-31T15:39:27.349Z,10.18
2022-12-31T15:44:52.539Z,9.23
2022-12-31T15:47:30.720Z,8.60
2022-12-31T15:50:07.227Z,9.02
2022-12-31T15:52:45.059Z,8.30
2022-12-31T15:55:26.142Z,8.73
2022-12-31T15:58:00.348Z,8.93
2022-12-31T16:00:40.152Z,9.40
2022-12-31T16:03:23.313Z,10.68
2022-12-31T16:06:01.647Z,9.30
2022-12-31T16:08:34.473Z,8.75
2022-12-31T16:11:07.242Z,8.17
2022-12-31T16:13:39.816Z,7.88
2022-12-31T16:16:21.704Z,7.72
2022-12-31T16:18:53.255Z,8.20
2022-12-31T16:21:32.828Z,7.43
2022-12-31T16:24:04.849Z,7.45
2022-12-31T16:26:40.066Z,6.93
2022-12-31T16:29:10.728Z,7.13
2022-12-31T16:31:40.952Z,7.22
2022-12-31T16:34:16.903Z,7.75
2022-12-31T16:36:58.117Z,7.40
2022-12-31T16:39:34.366Z,8.32
2022-12-31T16:42:12.935Z,7.97
2022-12-31T16:44:43.623Z,7.65
2022-12-31T16:47:21.510Z,9.07
2022-12-31T16:50:00.142Z,8.10
2022-12-31T16:52:37.090Z,8.20
2022-12-31T16:55:11.360Z,8.98
2022-12-31T16:57:41.884Z,8.07
2022-12-31T17:00:20.980Z,8.32
2022-12-31T17:02:58.627Z,8.85
2022-12-31T17:05:29.983Z,8.65
2022-12-31T17:08:25.431Z,8.80
2022-12-31T17:10:56.596Z,8.63
2022-12-31T17:13:40.074Z,9.70
2022-12-31T17:16:10.637Z,9.57
2022-12-31T17:18:42.072Z,7.93
2022-12-31T17:21:13.603Z,8.32
2022-12-31T17:23:53.454Z,8.35
2022-12-31T17:26:28.616Z,8.50
2022-12-31T17:29:00.729Z,9.15
2022-12-31T17:31:39.194Z,8.98
2022-12-31T17:34:25.191Z,8.95
2022-12-31T17:37:03.294Z,10.00
2022-12-31T17:39:48.531Z,9.60
2022-12-31T17:42:29.529Z,10.30
2022-12-31T17:45:02.969Z,9.85
2022-12-31T17:47:38.614Z,9.70
2022-12-31T17:50:20.040Z,10.38
2022-12-31T17:52:50.551Z,9.30
2022-12-31T17:55:23.199Z,9.88
2022-12-31T17:57:56.596Z,11.02
2022-12-31T18:00:29.351Z,10.68
2022-12-31T18:02:59.532Z,13.90
2022-12-31T18:05:30.031Z,11.20
2022-12-31T18:08:00.343Z,10.52
2022-12-31T18:10:37.666Z,9.75
2022-12-31T18:13:08.709Z,9.48
2022-12-31T18:15:39.048Z,10.00
2022-12-31T18:18:24.876Z,10.27
2022-12-31T18:20:57.557Z,8.88
2022-12-31T18:23:31.292Z,9.25
2022-12-31T18:26:04.193Z,9.05
2022-12-31T18:28:34.288Z,8.47
2022-12-31T18:31:04.892Z,9.70
2022-12-31T18:33:36.850Z,8.82
2022-12-31T18:36:09.867Z,8.25
2022-12-31T18:38:40.437Z,7.55
2022-12-31T18:41:19.978Z,9.18
2022-12-31T18:43:50.927Z,8.20
2022-12-31T18:46:23.555Z,7.97
2022-12-31T18:48:53.628Z,8.40
2022-12-31T18:51:31.764Z,8.48
2022-12-31T18:54:02.436Z,8.30
2022-12-31T18:56:35.129Z,7.97
2022-12-31T18:59:05.600Z,7.80
2022-12-31T19:01:38.353Z,8.48
2022-12-31T19:04:19.928Z,7.85
2022-12-31T19:06:53.269Z,8.38
2022-12-31T19:12:17.683Z,8.10
2022-12-31T19:14:47.799Z,8.80
2022-12-31T19:17:17.876Z,7.93
2022-12-31T19:19:48.112Z,8.63
2022-12-31T19:22:18.740Z,8.60
2022-12-31T19:24:48.820Z,10.93
2022-12-31T19:27:21.471Z,10.90
2022-12-31T19:29:52.042Z,11.25
2022-12-31T19:32:22.048Z,10.18
2022-12-31T19:34:52.185Z,9.48
2022-12-31T19:37:22.242Z,8.82
2022-12-31T19:39:52.322Z,8.88
2022-12-31T19:42:25.793Z,8.48
2022-12-31T19:44:56.026Z,9.07
2022-12-31T19:47:26.063Z,8.13
2022-12-31T19:49:56.068Z,9.27
2022-12-31T19:52:26.325Z,9.38
2022-12-31T19:54:56.557Z,8.77
2022-12-31T19:57:29.230Z,8.63
2022-12-31T19:59:59.394Z,8.80
2022-12-31T20:02:29.555Z,8.90
2022-12-31T20:04:59.840Z,9.02
2022-12-31T20:07:29.931Z,8.05
2022-12-31T20:10:00.188Z,8.90
2022-12-31T20:12:35.654Z,8.52
2022-12-31T20:15:09.297Z,8.55
2022-12-31T20:17:39.930Z,9.35
2022-12-31T20:20:11.244Z,8.88
2022-12-31T20:22:41.389Z,10.25
2022-12-31T20:25:12.458Z,9.25
2022-12-31T20:27:45.471Z,9.90
2022-12-31T20:30:17.397Z,8.47
2022-12-31T20:32:47.449Z,10.00
2022-12-31T20:35:17.652Z,8.18
2022-12-31T20:37:47.770Z,15.73
2022-12-31T20:40:17.998Z,14.20
2022-12-31T20:42:50.772Z,11.75
2022-12-31T20:45:21.309Z,10.15
2022-12-31T20:47:51.401Z,9.18
2022-12-31T20:50:21.514Z,9.77
2022-12-31T20:52:52.259Z,9.75
2022-12-31T20:55:22.341Z,9.60
2022-12-31T20:57:56.094Z,9.38
2022-12-31T21:00:26.821Z,8.88
2022-12-31T21:03:08.065Z,8.25
2022-12-31T21:05:41.117Z,8.18
2022-12-31T21:08:11.227Z,9.23
2022-12-31T21:10:41.602Z,8.90
2022-12-31T21:13:11.627Z,8.40
2022-12-31T21:15:42.086Z,8.48
2022-12-31T21:18:12.196Z,8.27
2022-12-31T21:20:42.292Z,7.72
2022-12-31T21:23:12.351Z,8.60
2022-12-31T21:25:42.396Z,8.35
2022-12-31T21:28:15.993Z,10.05
2022-12-31T21:30:46.719Z,13.93
2022-12-31T21:33:17.084Z,11.25
2022-12-31T21:35:53.550Z,9.15
2022-12-31T21:38:24.348Z,8.00
2022-12-31T21:40:54.797Z,7.28
2022-12-31T21:43:27.809Z,8.05
2022-12-31T21:46:03.592Z,9.03
2022-12-31T21:48:34.182Z,7.90
2022-12-31T21:51:10.353Z,6.95
2022-12-31T21:53:40.640Z,7.03
2022-12-31T21:56:12.020Z,9.20
2022-12-31T21:58:46.865Z,6.90
2022-12-31T22:01:35.528Z,6.85
2022-12-31T22:04:07.946Z,6.47
2022-12-31T22:06:43.011Z,6.43
2022-12-31T22:09:13.086Z,6.85
2022-12-31T22:11:43.360Z,7.03
2022-12-31T22:14:16.277Z,7.47
2022-12-31T22:16:46.354Z,9.27
2022-12-31T22:19:16.419Z,7.03
2022-12-31T22:21:46.463Z,7.13
2022-12-31T22:24:16.672Z,8.02
2022-12-31T22:26:47.302Z,7.53
2022-12-31T22:29:21.678Z,6.60
2022-12-31T22:31:54.519Z,5.53
2022-12-31T22:34:28.167Z,6.75
2022-12-31T22:36:58.855Z,5.85
2022-12-31T22:39:44.545Z,5.72
2022-12-31T22:42:15.306Z,5.05
2022-12-31T22:44:48.211Z,5.80
2022-12-31T22:47:18.238Z,5.60
2022-12-31T22:49:48.252Z,5.13
2022-12-31T22:52:18.658Z,5.45
2022-12-31T22:54:48.712Z,5.00
2022-12-31T22:57:20.370Z,5.35
2022-12-31T22:59:53.664Z,4.53
2022-12-31T23:02:23.710Z,6.03
2022-12-31T23:04:53.751Z,5.20
2022-12-31T23:07:43.951Z,6.43
2022-12-31T23:10:26.680Z,6.03
2022-12-31T23:12:56.930Z,4.88
2022-12-31T23:15:42.208Z,5.57
2022-12-31T23:18:24.690Z,4.90
2022-12-31T23:21:07.085Z,4.40
2022-12-31T23:23:37.342Z,4.65
2022-12-31T23:26:07.693Z,5.05
2022-12-31T23:28:37.697Z,5.20
2022-12-31T23:31:11.634Z,5.00
2022-12-31T23:33:41.839Z,5.40
2022-12-31T23:36:14.257Z,5.28
2022-12-31T23:38:44.637Z,5.10
2022-12-31T23:41:15.515Z,4.80
2022-12-31T23:43:45.623Z,5.00
2022-12-31T23:46:21.610Z,9.10
2022-12-31T23:48:51.991Z,6.15
2022-12-31T23:51:21.968Z,5.82
2022-12-31T23:53:52.275Z,5.25
2022-12-31T23:56:24.378Z,4.85
2022-12-31T23:58:57.173Z,5.07
